sensor_id;sensor_type;location;lat;lon;timestamp;pressure;altitude;pressure_sealevel;temperature;humidity
65800;BME280;52544;48.116;11.660;2023-02-21T00:00:50;96089.69;;;5.44;73.58
65800;BME280;52544;48.116;11.660;2023-02-21T00:03:34;96091.41;;;5.59;72.70
65800;BME280;52544;48.116;11.660;2023-02-21T00:06:18;96089.75;;;5.58;72.60
65800;BME280;52544;48.116;11.660;2023-02-21T00:09:01;96083.72;;;5.56;72.42
65800;BME280;52544;48.116;11.660;2023-02-21T00:11:46;96087.66;;;5.49;72.69
65800;BME280;52544;48.116;11.660;2023-02-21T00:14:30;96092.31;;;5.44;73.56
65800;BME280;52544;48.116;11.660;2023-02-21T00:17:13;96088.59;;;5.32;73.58
65800;BME280;52544;48.116;11.660;2023-02-21T00:19:58;96083.94;;;5.37;73.77
65800;BME280;52544;48.116;11.660;2023-02-21T00:22:41;96082.41;;;5.49;72.60
65800;BME280;52544;48.116;11.660;2023-02-21T00:25:25;96085.88;;;5.49;72.87
65800;BME280;52544;48.116;11.660;2023-02-21T00:28:09;96082.13;;;5.54;72.49
65800;BME280;52544;48.116;11.660;2023-02-21T00:30:53;96082.09;;;5.23;74.20
65800;BME280;52544;48.116;11.660;2023-02-21T00:33:37;96078.38;;;4.96;75.13
65800;BME280;52544;48.116;11.660;2023-02-21T00:36:20;96080.25;;;4.94;75.77
65800;BME280;52544;48.116;11.660;2023-02-21T00:39:04;96080.41;;;4.91;75.84
65800;BME280;52544;48.116;11.660;2023-02-21T00:41:48;96083.19;;;4.88;75.19
65800;BME280;52544;48.116;11.660;2023-02-21T00:44:32;96085.91;;;5.02;75.26
65800;BME280;52544;48.116;11.660;2023-02-21T00:47:15;96082.94;;;5.08;74.18
65800;BME280;52544;48.116;11.660;2023-02-21T00:49:59;96085.56;;;5.08;74.74
65800;BME280;52544;48.116;11.660;2023-02-21T00:52:43;96075.91;;;5.24;73.71
65800;BME280;52544;48.116;11.660;2023-02-21T00:55:27;96084.03;;;5.20;73.77
65800;BME280;52544;48.116;11.660;2023-02-21T00:58:11;96079.31;;;5.11;73.82
65800;BME280;52544;48.116;11.660;2023-02-21T01:00:55;96071.50;;;5.09;74.31
65800;BME280;52544;48.116;11.660;2023-02-21T01:03:39;96072.88;;;5.00;74.58
65800;BME280;52544;48.116;11.660;2023-02-21T01:06:23;96065.09;;;4.83;74.34
65800;BME280;52544;48.116;11.660;2023-02-21T01:09:06;96070.44;;;4.82;75.48
65800;BME280;52544;48.116;11.660;2023-02-21T01:11:50;96061.72;;;4.81;76.09
65800;BME280;52544;48.116;11.660;2023-02-21T01:14:34;96055.19;;;4.88;75.26
65800;BME280;52544;48.116;11.660;2023-02-21T01:17:18;96064.91;;;4.70;75.93
65800;BME280;52544;48.116;11.660;2023-02-21T01:20:02;96065.34;;;4.79;75.57
65800;BME280;52544;48.116;11.660;2023-02-21T01:22:46;96063.31;;;4.84;75.57
65800;BME280;52544;48.116;11.660;2023-02-21T01:25:30;96054.78;;;4.64;76.42
65800;BME280;52544;48.116;11.660;2023-02-21T01:28:14;96053.00;;;4.65;76.18
65800;BME280;52544;48.116;11.660;2023-02-21T01:30:58;96041.41;;;4.69;76.57
65800;BME280;52544;48.116;11.660;2023-02-21T01:33:41;96041.75;;;4.79;76.22
65800;BME280;52544;48.116;11.660;2023-02-21T01:36:26;96045.63;;;4.87;75.35
65800;BME280;52544;48.116;11.660;2023-02-21T01:39:11;96047.25;;;4.90;75.48
65800;BME280;52544;48.116;11.660;2023-02-21T01:41:55;96041.41;;;4.85;75.96
65800;BME280;52544;48.116;11.660;2023-02-21T01:44:42;96040.06;;;4.78;76.23
65800;BME280;52544;48.116;11.660;2023-02-21T01:47:27;96031.88;;;4.68;76.78
65800;BME280;52544;48.116;11.660;2023-02-21T01:50:24;96032.94;;;4.80;76.53
65800;BME280;52544;48.116;11.660;2023-02-21T01:53:15;96032.94;;;4.80;75.74
65800;BME280;52544;48.116;11.660;2023-02-21T01:56:01;96028.91;;;4.90;74.56
65800;BME280;52544;48.116;11.660;2023-02-21T01:58:46;96024.97;;;4.97;74.72
65800;BME280;52544;48.116;11.660;2023-02-21T02:01:39;96025.94;;;4.80;75.53
65800;BME280;52544;48.116;11.660;2023-02-21T02:04:28;96020.44;;;4.85;75.58
65800;BME280;52544;48.116;11.660;2023-02-21T02:07:12;96016.47;;;4.78;75.55
65800;BME280;52544;48.116;11.660;2023-02-21T02:09:56;96018.31;;;4.75;75.36
65800;BME280;52544;48.116;11.660;2023-02-21T02:13:02;96020.34;;;4.55;76.71
65800;BME280;52544;48.116;11.660;2023-02-21T02:40:16;96008.09;;;4.06;78.60
65800;BME280;52544;48.116;11.660;2023-02-21T02:43:07;96014.78;;;3.96;79.14
65800;BME280;52544;48.116;11.660;2023-02-21T02:45:39;96009.84;;;3.90;79.66
65800;BME280;52544;48.116;11.660;2023-02-21T02:48:20;96003.84;;;3.88;80.05
65800;BME280;52544;48.116;11.660;2023-02-21T02:50:48;95996.09;;;4.02;79.25
65800;BME280;52544;48.116;11.660;2023-02-21T02:53:20;96003.75;;;3.89;79.84
65800;BME280;52544;48.116;11.660;2023-02-21T02:55:55;95998.84;;;3.83;79.85
65800;BME280;52544;48.116;11.660;2023-02-21T02:58:22;96004.53;;;3.91;80.16
65800;BME280;52544;48.116;11.660;2023-02-21T03:04:13;96000.09;;;3.76;80.82
65800;BME280;52544;48.116;11.660;2023-02-21T03:09:50;95998.66;;;3.70;80.32
65800;BME280;52544;48.116;11.660;2023-02-21T03:12:24;95993.69;;;3.64;80.60
65800;BME280;52544;48.116;11.660;2023-02-21T03:17:26;96002.03;;;3.55;81.24
65800;BME280;52544;48.116;11.660;2023-02-21T03:19:53;96012.28;;;3.42;81.75
65800;BME280;52544;48.116;11.660;2023-02-21T03:22:24;96003.72;;;3.39;82.19
65800;BME280;52544;48.116;11.660;2023-02-21T03:24:52;96009.13;;;3.36;82.93
65800;BME280;52544;48.116;11.660;2023-02-21T03:27:20;96010.97;;;3.34;83.15
65800;BME280;52544;48.116;11.660;2023-02-21T03:29:46;96008.59;;;3.29;82.85
65800;BME280;52544;48.116;11.660;2023-02-21T03:32:17;96014.66;;;3.30;83.01
65800;BME280;52544;48.116;11.660;2023-02-21T03:34:45;96012.97;;;3.29;83.54
65800;BME280;52544;48.116;11.660;2023-02-21T03:40:04;96007.72;;;2.94;85.44
65800;BME280;52544;48.116;11.660;2023-02-21T03:42:30;96011.53;;;2.87;87.09
65800;BME280;52544;48.116;11.660;2023-02-21T03:44:55;96013.16;;;2.89;87.08
65800;BME280;52544;48.116;11.660;2023-02-21T03:47:21;96008.81;;;3.07;86.46
65800;BME280;52544;48.116;11.660;2023-02-21T03:49:46;96011.94;;;2.96;85.78
65800;BME280;52544;48.116;11.660;2023-02-21T03:52:12;96007.72;;;3.11;85.71
65800;BME280;52544;48.116;11.660;2023-02-21T03:54:38;96009.75;;;3.23;84.53
65800;BME280;52544;48.116;11.660;2023-02-21T03:57:04;96011.44;;;3.24;84.07
65800;BME280;52544;48.116;11.660;2023-02-21T03:59:29;96007.13;;;3.23;84.01
65800;BME280;52544;48.116;11.660;2023-02-21T04:01:55;95998.59;;;3.20;84.09
65800;BME280;52544;48.116;11.660;2023-02-21T04:04:20;96007.38;;;3.19;84.10
65800;BME280;52544;48.116;11.660;2023-02-21T04:06:46;96007.88;;;3.08;84.59
65800;BME280;52544;48.116;11.660;2023-02-21T04:09:11;95999.66;;;2.98;85.28
65800;BME280;52544;48.116;11.660;2023-02-21T04:11:36;96003.31;;;2.77;86.01
65800;BME280;52544;48.116;11.660;2023-02-21T04:14:02;96005.06;;;2.77;87.18
65800;BME280;52544;48.116;11.660;2023-02-21T04:16:29;96004.53;;;2.87;87.64
65800;BME280;52544;48.116;11.660;2023-02-21T04:18:54;96011.44;;;2.88;87.71
65800;BME280;52544;48.116;11.660;2023-02-21T04:21:21;96007.59;;;2.78;87.95
65800;BME280;52544;48.116;11.660;2023-02-21T04:23:46;96004.44;;;2.89;87.57
65800;BME280;52544;48.116;11.660;2023-02-21T04:26:12;96006.88;;;2.93;87.94
65800;BME280;52544;48.116;11.660;2023-02-21T04:28:37;96003.63;;;3.06;86.97
65800;BME280;52544;48.116;11.660;2023-02-21T04:31:02;96004.03;;;2.98;87.07
65800;BME280;52544;48.116;11.660;2023-02-21T04:33:28;96002.81;;;3.22;87.91
65800;BME280;52544;48.116;11.660;2023-02-21T04:35:53;96002.81;;;3.40;87.56
65800;BME280;52544;48.116;11.660;2023-02-21T04:38:19;95996.66;;;3.58;86.10
65800;BME280;52544;48.116;11.660;2023-02-21T04:40:44;95992.91;;;3.80;84.94
65800;BME280;52544;48.116;11.660;2023-02-21T04:43:09;95983.69;;;4.06;83.45
65800;BME280;52544;48.116;11.660;2023-02-21T04:45:35;95988.97;;;4.21;82.22
65800;BME280;52544;48.116;11.660;2023-02-21T04:48:00;95986.59;;;4.33;81.69
65800;BME280;52544;48.116;11.660;2023-02-21T04:50:25;95985.75;;;4.48;80.08
65800;BME280;52544;48.116;11.660;2023-02-21T04:52:53;95987.13;;;4.55;79.74
65800;BME280;52544;48.116;11.660;2023-02-21T04:55:18;95984.00;;;4.64;78.82
65800;BME280;52544;48.116;11.660;2023-02-21T04:57:43;95980.34;;;4.67;78.58
65800;BME280;52544;48.116;11.660;2023-02-21T05:00:09;95974.84;;;4.71;77.86
65800;BME280;52544;48.116;11.660;2023-02-21T05:02:35;95976.28;;;4.77;78.01
65800;BME280;52544;48.116;11.660;2023-02-21T05:05:00;95972.13;;;4.89;77.19
65800;BME280;52544;48.116;11.660;2023-02-21T05:07:26;95972.38;;;4.84;76.89
65800;BME280;52544;48.116;11.660;2023-02-21T05:09:51;95970.41;;;4.88;76.93
65800;BME280;52544;48.116;11.660;2023-02-21T05:12:16;95970.34;;;4.89;76.81
65800;BME280;52544;48.116;11.660;2023-02-21T05:14:42;95966.63;;;4.93;77.18
65800;BME280;52544;48.116;11.660;2023-02-21T05:17:08;95963.38;;;5.04;76.42
65800;BME280;52544;48.116;11.660;2023-02-21T05:19:34;95957.97;;;5.07;76.13
65800;BME280;52544;48.116;11.660;2023-02-21T05:22:01;95949.91;;;5.10;75.18
65800;BME280;52544;48.116;11.660;2023-02-21T05:24:28;95947.63;;;5.04;75.75
65800;BME280;52544;48.116;11.660;2023-02-21T05:26:54;95951.38;;;5.00;76.25
65800;BME280;52544;48.116;11.660;2023-02-21T05:29:20;95952.84;;;4.90;76.11
65800;BME280;52544;48.116;11.660;2023-02-21T05:31:46;95949.69;;;4.99;76.23
65800;BME280;52544;48.116;11.660;2023-02-21T05:34:12;95947.44;;;4.93;76.19
65800;BME280;52544;48.116;11.660;2023-02-21T05:36:38;95957.00;;;4.78;77.71
65800;BME280;52544;48.116;11.660;2023-02-21T05:39:05;95958.19;;;4.72;78.17
65800;BME280;52544;48.116;11.660;2023-02-21T05:41:31;95954.63;;;4.58;79.09
65800;BME280;52544;48.116;11.660;2023-02-21T05:43:56;95962.59;;;4.56;78.07
65800;BME280;52544;48.116;11.660;2023-02-21T05:46:27;95959.03;;;4.57;78.46
65800;BME280;52544;48.116;11.660;2023-02-21T05:48:54;95957.44;;;4.39;78.92
65800;BME280;52544;48.116;11.660;2023-02-21T05:51:21;95958.19;;;4.41;79.45
65800;BME280;52544;48.116;11.660;2023-02-21T05:53:46;95958.88;;;4.44;78.91
65800;BME280;52544;48.116;11.660;2023-02-21T05:56:12;95962.69;;;4.55;78.05
65800;BME280;52544;48.116;11.660;2023-02-21T05:58:38;95953.47;;;4.63;76.77
65800;BME280;52544;48.116;11.660;2023-02-21T06:01:04;95956.69;;;4.68;76.63
65800;BME280;52544;48.116;11.660;2023-02-21T06:03:29;95960.22;;;4.67;76.44
65800;BME280;52544;48.116;11.660;2023-02-21T06:05:54;95962.34;;;4.61;76.99
65800;BME280;52544;48.116;11.660;2023-02-21T06:08:20;95958.53;;;4.66;76.18
65800;BME280;52544;48.116;11.660;2023-02-21T06:10:45;95950.16;;;4.60;76.67
65800;BME280;52544;48.116;11.660;2023-02-21T06:13:11;95955.75;;;4.54;77.32
65800;BME280;52544;48.116;11.660;2023-02-21T06:15:36;95951.53;;;4.51;77.09
65800;BME280;52544;48.116;11.660;2023-02-21T06:18:02;95952.78;;;4.44;78.12
65800;BME280;52544;48.116;11.660;2023-02-21T06:20:27;95954.72;;;4.40;77.89
65800;BME280;52544;48.116;11.660;2023-02-21T06:22:52;95948.56;;;4.57;76.02
65800;BME280;52544;48.116;11.660;2023-02-21T06:25:18;95960.47;;;4.63;75.23
65800;BME280;52544;48.116;11.660;2023-02-21T06:27:43;95953.53;;;4.62;76.26
65800;BME280;52544;48.116;11.660;2023-02-21T06:30:09;95962.66;;;4.70;75.01
65800;BME280;52544;48.116;11.660;2023-02-21T06:32:35;95967.16;;;4.68;75.13
65800;BME280;52544;48.116;11.660;2023-02-21T06:35:01;95967.75;;;4.73;74.85
65800;BME280;52544;48.116;11.660;2023-02-21T06:37:26;95968.41;;;4.77;74.62
65800;BME280;52544;48.116;11.660;2023-02-21T06:39:53;95972.72;;;4.78;74.17
65800;BME280;52544;48.116;11.660;2023-02-21T06:42:19;95982.22;;;4.81;74.35
65800;BME280;52544;48.116;11.660;2023-02-21T06:44:48;95977.72;;;4.83;74.48
65800;BME280;52544;48.116;11.660;2023-02-21T06:47:14;95983.94;;;4.96;73.87
65800;BME280;52544;48.116;11.660;2023-02-21T06:49:40;95985.47;;;5.00;73.94
65800;BME280;52544;48.116;11.660;2023-02-21T06:52:06;95987.66;;;5.08;74.34
65800;BME280;52544;48.116;11.660;2023-02-21T06:54:32;95991.97;;;5.09;74.31
65800;BME280;52544;48.116;11.660;2023-02-21T06:56:57;95992.31;;;5.18;73.92
65800;BME280;52544;48.116;11.660;2023-02-21T06:59:24;96001.50;;;5.25;73.34
65800;BME280;52544;48.116;11.660;2023-02-21T07:01:50;95998.69;;;5.29;74.26
65800;BME280;52544;48.116;11.660;2023-02-21T07:04:15;96002.06;;;5.31;74.22
65800;BME280;52544;48.116;11.660;2023-02-21T07:06:40;96005.09;;;5.39;73.13
65800;BME280;52544;48.116;11.660;2023-02-21T07:09:06;96005.88;;;5.55;72.33
65800;BME280;52544;48.116;11.660;2023-02-21T07:11:33;96014.00;;;5.66;71.23
65800;BME280;52544;48.116;11.660;2023-02-21T07:13:58;96009.41;;;5.84;71.83
65800;BME280;52544;48.116;11.660;2023-02-21T07:16:24;96005.81;;;6.01;69.28
65800;BME280;52544;48.116;11.660;2023-02-21T07:18:50;96011.06;;;6.15;68.82
65800;BME280;52544;48.116;11.660;2023-02-21T07:21:17;96009.66;;;6.24;67.85
65800;BME280;52544;48.116;11.660;2023-02-21T07:23:43;96010.31;;;6.42;67.22
65800;BME280;52544;48.116;11.660;2023-02-21T07:26:10;96009.34;;;6.71;64.42
65800;BME280;52544;48.116;11.660;2023-02-21T07:28:36;96005.72;;;6.87;64.19
65800;BME280;52544;48.116;11.660;2023-02-21T07:31:01;96010.38;;;6.96;63.80
65800;BME280;52544;48.116;11.660;2023-02-21T07:33:27;96010.31;;;6.97;64.53
65800;BME280;52544;48.116;11.660;2023-02-21T07:35:52;96001.34;;;7.27;62.52
65800;BME280;52544;48.116;11.660;2023-02-21T07:38:20;96001.69;;;7.35;61.51
65800;BME280;52544;48.116;11.660;2023-02-21T07:40:45;95991.22;;;7.61;59.54
65800;BME280;52544;48.116;11.660;2023-02-21T07:43:11;96003.78;;;7.70;60.11
65800;BME280;52544;48.116;11.660;2023-02-21T07:45:36;95996.59;;;7.85;59.07
65800;BME280;52544;48.116;11.660;2023-02-21T07:48:02;95995.56;;;7.74;59.14
65800;BME280;52544;48.116;11.660;2023-02-21T07:50:27;96008.31;;;7.93;58.27
65800;BME280;52544;48.116;11.660;2023-02-21T07:52:52;96002.72;;;8.23;57.81
65800;BME280;52544;48.116;11.660;2023-02-21T07:55:18;96006.44;;;8.21;57.84
65800;BME280;52544;48.116;11.660;2023-02-21T07:57:44;96006.00;;;8.14;58.46
65800;BME280;52544;48.116;11.660;2023-02-21T08:00:14;96013.28;;;8.49;57.66
65800;BME280;52544;48.116;11.660;2023-02-21T08:02:39;96013.91;;;8.52;56.42
65800;BME280;52544;48.116;11.660;2023-02-21T08:05:06;96021.16;;;8.74;56.07
65800;BME280;52544;48.116;11.660;2023-02-21T08:07:31;96018.00;;;9.06;55.51
65800;BME280;52544;48.116;11.660;2023-02-21T08:09:57;96015.16;;;9.09;53.98
65800;BME280;52544;48.116;11.660;2023-02-21T08:12:22;96015.53;;;9.16;54.29
65800;BME280;52544;48.116;11.660;2023-02-21T08:14:48;96015.97;;;9.34;53.28
65800;BME280;52544;48.116;11.660;2023-02-21T08:17:13;96021.59;;;9.53;53.43
65800;BME280;52544;48.116;11.660;2023-02-21T08:19:39;96012.84;;;9.64;53.80
65800;BME280;52544;48.116;11.660;2023-02-21T08:22:04;96004.50;;;9.81;51.94
65800;BME280;52544;48.116;11.660;2023-02-21T08:24:30;96007.66;;;9.97;52.18
65800;BME280;52544;48.116;11.660;2023-02-21T08:26:55;96006.38;;;10.14;52.77
65800;BME280;52544;48.116;11.660;2023-02-21T08:29:20;96012.22;;;10.31;51.64
65800;BME280;52544;48.116;11.660;2023-02-21T08:31:46;96007.41;;;10.47;50.99
65800;BME280;52544;48.116;11.660;2023-02-21T08:34:12;96016.53;;;10.65;50.09
65800;BME280;52544;48.116;11.660;2023-02-21T08:36:41;96015.06;;;10.95;50.79
65800;BME280;52544;48.116;11.660;2023-02-21T08:39:08;96018.38;;;11.31;49.07
65800;BME280;52544;48.116;11.660;2023-02-21T08:41:35;96016.69;;;11.30;48.83
65800;BME280;52544;48.116;11.660;2023-02-21T08:44:00;96015.19;;;11.48;48.83
65800;BME280;52544;48.116;11.660;2023-02-21T08:46:26;96007.88;;;11.72;48.83
65800;BME280;52544;48.116;11.660;2023-02-21T08:48:51;96009.00;;;11.91;48.67
65800;BME280;52544;48.116;11.660;2023-02-21T08:51:17;96004.59;;;12.01;47.89
65800;BME280;52544;48.116;11.660;2023-02-21T08:53:43;96005.97;;;12.16;47.44
65800;BME280;52544;48.116;11.660;2023-02-21T08:56:08;96007.13;;;12.23;47.33
65800;BME280;52544;48.116;11.660;2023-02-21T08:58:33;96003.03;;;12.40;47.46
65800;BME280;52544;48.116;11.660;2023-02-21T09:00:59;96002.69;;;12.55;46.59
65800;BME280;52544;48.116;11.660;2023-02-21T09:03:24;96002.97;;;12.61;46.46
65800;BME280;52544;48.116;11.660;2023-02-21T09:05:50;96002.88;;;12.72;46.01
65800;BME280;52544;48.116;11.660;2023-02-21T09:08:15;96005.91;;;12.58;47.50
65800;BME280;52544;48.116;11.660;2023-02-21T09:10:41;96003.81;;;12.92;45.79
65800;BME280;52544;48.116;11.660;2023-02-21T09:13:11;96006.63;;;13.10;45.40
65800;BME280;52544;48.116;11.660;2023-02-21T09:15:37;96007.81;;;13.27;45.79
65800;BME280;52544;48.116;11.660;2023-02-21T09:18:02;96012.72;;;13.32;45.07
65800;BME280;52544;48.116;11.660;2023-02-21T09:20:27;96000.88;;;13.55;45.82
65800;BME280;52544;48.116;11.660;2023-02-21T09:22:53;96009.41;;;13.68;44.51
65800;BME280;52544;48.116;11.660;2023-02-21T09:25:21;96006.47;;;13.91;44.80
65800;BME280;52544;48.116;11.660;2023-02-21T09:27:50;95995.34;;;14.24;43.66
65800;BME280;52544;48.116;11.660;2023-02-21T09:30:19;95992.94;;;14.41;42.43
65800;BME280;52544;48.116;11.660;2023-02-21T09:32:48;96000.47;;;14.55;41.72
65800;BME280;52544;48.116;11.660;2023-02-21T09:35:13;96006.91;;;14.62;41.99
65800;BME280;52544;48.116;11.660;2023-02-21T09:37:40;95996.81;;;14.56;41.18
65800;BME280;52544;48.116;11.660;2023-02-21T09:40:38;95996.69;;;14.48;42.09
65800;BME280;52544;48.116;11.660;2023-02-21T09:43:07;95999.28;;;14.77;41.74
65800;BME280;52544;48.116;11.660;2023-02-21T09:45:36;95991.88;;;14.98;39.32
65800;BME280;52544;48.116;11.660;2023-02-21T09:48:12;95998.19;;;14.97;41.32
65800;BME280;52544;48.116;11.660;2023-02-21T09:50:45;95989.34;;;15.24;39.58
65800;BME280;52544;48.116;11.660;2023-02-21T09:53:33;95990.69;;;15.11;38.50
65800;BME280;52544;48.116;11.660;2023-02-21T09:56:24;95987.03;;;15.12;38.91
65800;BME280;52544;48.116;11.660;2023-02-21T09:58:52;95990.34;;;15.23;38.71
65800;BME280;52544;48.116;11.660;2023-02-21T10:06:55;95984.97;;;15.51;38.54
65800;BME280;52544;48.116;11.660;2023-02-21T10:15:07;95981.66;;;16.29;36.97
65800;BME280;52544;48.116;11.660;2023-02-21T10:20:21;95972.09;;;16.52;36.70
65800;BME280;52544;48.116;11.660;2023-02-21T10:22:51;95973.97;;;16.86;36.35
65800;BME280;52544;48.116;11.660;2023-02-21T10:25:24;95973.53;;;16.98;35.55
65800;BME280;52544;48.116;11.660;2023-02-21T10:27:51;95981.13;;;17.19;35.08
65800;BME280;52544;48.116;11.660;2023-02-21T10:32:56;95979.28;;;17.95;34.40
65800;BME280;52544;48.116;11.660;2023-02-21T10:35:22;95991.84;;;17.94;33.61
65800;BME280;52544;48.116;11.660;2023-02-21T10:37:52;95986.50;;;17.94;32.87
65800;BME280;52544;48.116;11.660;2023-02-21T10:46:22;95989.50;;;17.91;34.21
65800;BME280;52544;48.116;11.660;2023-02-21T10:48:50;95983.81;;;18.11;33.33
65800;BME280;52544;48.116;11.660;2023-02-21T10:53:52;95976.94;;;18.16;32.97
65800;BME280;52544;48.116;11.660;2023-02-21T10:56:21;95972.91;;;18.37;33.38
65800;BME280;52544;48.116;11.660;2023-02-21T10:59:03;95969.50;;;18.59;33.03
65800;BME280;52544;48.116;11.660;2023-02-21T11:01:41;95964.91;;;18.92;32.76
65800;BME280;52544;48.116;11.660;2023-02-21T11:14:33;95950.00;;;18.90;32.37
65800;BME280;52544;48.116;11.660;2023-02-21T11:17:18;95944.81;;;19.28;31.94
65800;BME280;52544;48.116;11.660;2023-02-21T11:19:54;95949.03;;;19.22;32.37
65800;BME280;52544;48.116;11.660;2023-02-21T11:22:23;95932.13;;;19.44;30.69
65800;BME280;52544;48.116;11.660;2023-02-21T11:24:56;95930.78;;;19.17;31.73
65800;BME280;52544;48.116;11.660;2023-02-21T11:27:23;95930.25;;;18.91;31.78
65800;BME280;52544;48.116;11.660;2023-02-21T11:29:50;95923.28;;;19.36;32.03
65800;BME280;52544;48.116;11.660;2023-02-21T11:32:36;95922.84;;;19.78;29.87
65800;BME280;52544;48.116;11.660;2023-02-21T11:35:20;95915.09;;;19.60;29.66
65800;BME280;52544;48.116;11.660;2023-02-21T11:37:55;95901.53;;;19.54;33.54
65800;BME280;52544;48.116;11.660;2023-02-21T11:40:40;95908.06;;;19.59;30.26
65800;BME280;52544;48.116;11.660;2023-02-21T11:43:28;95898.69;;;19.55;30.78
65800;BME280;52544;48.116;11.660;2023-02-21T11:46:38;95898.69;;;19.24;31.24
65800;BME280;52544;48.116;11.660;2023-02-21T11:49:07;95894.13;;;18.62;30.62
65800;BME280;52544;48.116;11.660;2023-02-21T11:54:24;95890.66;;;18.93;32.08
65800;BME280;52544;48.116;11.660;2023-02-21T12:02:38;95873.69;;;18.69;32.60
65800;BME280;52544;48.116;11.660;2023-02-21T12:05:46;95874.00;;;18.66;32.17
65800;BME280;52544;48.116;11.660;2023-02-21T12:08:37;95866.59;;;18.29;31.81
65800;BME280;52544;48.116;11.660;2023-02-21T12:14:05;95853.09;;;18.06;32.46
65800;BME280;52544;48.116;11.660;2023-02-21T12:16:45;95851.56;;;18.12;33.63
65800;BME280;52544;48.116;11.660;2023-02-21T12:22:02;95848.59;;;18.54;33.16
65800;BME280;52544;48.116;11.660;2023-02-21T12:27:41;95847.09;;;18.43;32.64
65800;BME280;52544;48.116;11.660;2023-02-21T12:32:50;95829.56;;;18.41;32.70
65800;BME280;52544;48.116;11.660;2023-02-21T12:35:39;95827.94;;;18.23;32.72
65800;BME280;52544;48.116;11.660;2023-02-21T12:38:26;95822.88;;;18.37;33.52
65800;BME280;52544;48.116;11.660;2023-02-21T12:48:38;95826.44;;;18.60;33.12
65800;BME280;52544;48.116;11.660;2023-02-21T12:51:09;95814.06;;;18.59;32.87
65800;BME280;52544;48.116;11.660;2023-02-21T12:58:57;95798.69;;;19.38;31.97
65800;BME280;52544;48.116;11.660;2023-02-21T13:01:30;95785.06;;;19.40;31.95
65800;BME280;52544;48.116;11.660;2023-02-21T13:04:23;95785.41;;;19.60;32.15
65800;BME280;52544;48.116;11.660;2023-02-21T13:07:03;95784.09;;;19.56;31.92
65800;BME280;52544;48.116;11.660;2023-02-21T13:09:55;95784.25;;;19.92;31.66
65800;BME280;52544;48.116;11.660;2023-02-21T13:12:38;95783.91;;;19.95;31.54
65800;BME280;52544;48.116;11.660;2023-02-21T13:15:15;95782.69;;;20.12;31.64
65800;BME280;52544;48.116;11.660;2023-02-21T13:17:42;95776.22;;;20.21;31.09
65800;BME280;52544;48.116;11.660;2023-02-21T13:20:14;95772.53;;;20.22;31.36
65800;BME280;52544;48.116;11.660;2023-02-21T13:26:28;95760.28;;;20.35;30.92
65800;BME280;52544;48.116;11.660;2023-02-21T13:28:57;95753.59;;;20.45;29.97
65800;BME280;52544;48.116;11.660;2023-02-21T13:31:34;95750.38;;;20.20;30.13
65800;BME280;52544;48.116;11.660;2023-02-21T13:34:08;95744.72;;;20.15;31.07
65800;BME280;52544;48.116;11.660;2023-02-21T13:41:42;95735.63;;;20.16;32.21
65800;BME280;52544;48.116;11.660;2023-02-21T13:44:12;95727.75;;;20.30;30.78
65800;BME280;52544;48.116;11.660;2023-02-21T14:08:34;95693.81;;;20.80;29.95
65800;BME280;52544;48.116;11.660;2023-02-21T14:13:34;95688.94;;;21.11;30.45
65800;BME280;52544;48.116;11.660;2023-02-21T14:21:05;95683.19;;;20.93;30.95
65800;BME280;52544;48.116;11.660;2023-02-21T14:23:45;95683.03;;;21.01;31.35
65800;BME280;52544;48.116;11.660;2023-02-21T14:26:39;95681.25;;;21.08;30.92
65800;BME280;52544;48.116;11.660;2023-02-21T14:34:22;95676.50;;;20.67;31.36
65800;BME280;52544;48.116;11.660;2023-02-21T14:36:50;95672.50;;;20.57;31.67
65800;BME280;52544;48.116;11.660;2023-02-21T14:39:16;95664.59;;;20.55;32.07
65800;BME280;52544;48.116;11.660;2023-02-21T14:42:18;95666.97;;;20.29;33.35
65800;BME280;52544;48.116;11.660;2023-02-21T14:55:55;95661.16;;;19.21;33.24
65800;BME280;52544;48.116;11.660;2023-02-21T14:58:41;95647.63;;;19.15;34.63
65800;BME280;52544;48.116;11.660;2023-02-21T15:03:47;95640.19;;;18.87;34.39
65800;BME280;52544;48.116;11.660;2023-02-21T15:06:20;95645.38;;;18.35;35.10
65800;BME280;52544;48.116;11.660;2023-02-21T15:08:50;95642.38;;;18.07;35.58
65800;BME280;52544;48.116;11.660;2023-02-21T15:16:40;95645.63;;;17.46;36.66
65800;BME280;52544;48.116;11.660;2023-02-21T15:19:19;95638.81;;;17.28;35.93
65800;BME280;52544;48.116;11.660;2023-02-21T15:21:45;95643.84;;;17.14;36.07
65800;BME280;52544;48.116;11.660;2023-02-21T15:24:14;95640.22;;;16.91;36.61
65800;BME280;52544;48.116;11.660;2023-02-21T15:26:40;95628.53;;;16.76;37.98
65800;BME280;52544;48.116;11.660;2023-02-21T15:29:17;95630.19;;;16.77;37.63
65800;BME280;52544;48.116;11.660;2023-02-21T15:31:53;95624.47;;;16.47;38.23
65800;BME280;52544;48.116;11.660;2023-02-21T15:36:51;95620.47;;;16.27;37.93
65800;BME280;52544;48.116;11.660;2023-02-21T15:39:29;95616.78;;;16.11;38.79
65800;BME280;52544;48.116;11.660;2023-02-21T15:41:57;95621.75;;;15.98;39.32
65800;BME280;52544;48.116;11.660;2023-02-21T15:44:31;95617.38;;;15.81;40.82
65800;BME280;52544;48.116;11.660;2023-02-21T15:47:15;95609.00;;;15.75;40.83
65800;BME280;52544;48.116;11.660;2023-02-21T15:52:43;95618.91;;;15.57;41.72
65800;BME280;52544;48.116;11.660;2023-02-21T15:57:59;95608.09;;;15.24;42.23
65800;BME280;52544;48.116;11.660;2023-02-21T16:00:33;95604.78;;;15.22;42.54
65800;BME280;52544;48.116;11.660;2023-02-21T16:03:24;95611.91;;;15.14;42.77
65800;BME280;52544;48.116;11.660;2023-02-21T16:05:50;95606.81;;;15.03;43.30
65800;BME280;52544;48.116;11.660;2023-02-21T16:08:16;95608.78;;;14.92;43.97
65800;BME280;52544;48.116;11.660;2023-02-21T16:10:42;95602.69;;;14.82;43.90
65800;BME280;52544;48.116;11.660;2023-02-21T16:13:08;95604.75;;;14.62;44.46
65800;BME280;52544;48.116;11.660;2023-02-21T16:15:34;95606.50;;;14.54;44.32